createdAt,value
2022-10-11T00:02:24.439Z,8.10
2022-10-11T00:04:55.896Z,8.08
2022-10-11T00:07:23.948Z,8.09
2022-10-11T00:09:51.966Z,8.07
2022-10-11T00:12:19.974Z,8.06
2022-10-11T00:14:48.047Z,8.04
2022-10-11T00:17:16.133Z,8.00
2022-10-11T00:19:44.161Z,7.98
2022-10-11T00:22:13.542Z,7.97
2022-10-11T00:24:41.550Z,7.96
2022-10-11T00:27:11.175Z,7.94
2022-10-11T00:29:39.261Z,7.91
2022-10-11T00:32:07.380Z,7.91
2022-10-11T00:34:35.432Z,7.89
2022-10-11T00:37:03.918Z,7.88
2022-10-11T00:39:33.307Z,7.85
2022-10-11T00:42:01.373Z,7.83
2022-10-11T00:44:30.638Z,7.82
2022-10-11T00:47:01.014Z,7.81
2022-10-11T00:49:35.061Z,7.79
2022-10-11T00:52:06.639Z,7.77
2022-10-11T00:54:39.127Z,7.76
2022-10-11T00:57:12.582Z,7.76
2022-10-11T00:59:44.058Z,7.74
2022-10-11T01:02:12.380Z,7.74
2022-10-11T01:04:41.022Z,7.73
2022-10-11T01:07:09.422Z,7.72
2022-10-11T01:09:38.978Z,7.72
2022-10-11T01:12:13.782Z,7.71
2022-10-11T01:15:03.408Z,7.71
2022-10-11T01:17:36.853Z,7.70
2022-10-11T01:20:32.053Z,7.72
2022-10-11T01:23:46.300Z,7.72
2022-10-11T01:26:43.319Z,7.73
2022-10-11T01:29:18.326Z,7.72
2022-10-11T01:31:52.406Z,7.73
2022-10-11T01:34:26.639Z,7.74
2022-10-11T01:36:59.973Z,7.74
2022-10-11T01:39:32.648Z,7.74
2022-10-11T01:42:03.784Z,7.73
2022-10-11T01:44:33.979Z,7.73
2022-10-11T01:47:03.364Z,7.71
2022-10-11T01:49:31.410Z,7.70
2022-10-11T01:52:02.878Z,7.69
2022-10-11T01:55:04.036Z,7.68
2022-10-11T01:57:47.008Z,7.65
2022-10-11T02:00:17.189Z,7.64
2022-10-11T02:02:54.072Z,7.62
2022-10-11T02:05:30.450Z,7.62
2022-10-11T02:08:05.914Z,7.61
2022-10-11T02:10:37.069Z,7.61
2022-10-11T02:13:09.242Z,7.61
2022-10-11T02:15:40.845Z,7.61
2022-10-11T02:18:14.157Z,7.62
2022-10-11T02:20:43.489Z,7.61
2022-10-11T02:23:14.423Z,7.62
2022-10-11T02:25:44.167Z,7.62
2022-10-11T02:28:14.593Z,7.62
2022-10-11T02:30:43.011Z,7.61
2022-10-11T02:33:14.502Z,7.60
2022-10-11T02:35:45.671Z,7.60
2022-10-11T02:38:18.816Z,7.60
2022-10-11T02:40:51.008Z,7.60
2022-10-11T02:43:24.063Z,7.63
2022-10-11T02:45:55.825Z,7.64
2022-10-11T02:48:27.491Z,7.65
2022-10-11T02:50:56.553Z,7.66
2022-10-11T02:53:25.641Z,7.65
2022-10-11T02:55:54.705Z,7.64
2022-10-11T02:58:23.269Z,7.64
2022-10-11T03:00:51.704Z,7.65
2022-10-11T03:03:19.729Z,7.63
2022-10-11T03:05:49.123Z,7.60
2022-10-11T03:08:18.417Z,7.56
2022-10-11T03:10:46.469Z,7.55
2022-10-11T03:13:18.172Z,7.51
2022-10-11T03:16:00.714Z,7.49
2022-10-11T03:18:30.735Z,7.48
2022-10-11T03:21:00.179Z,7.45
2022-10-11T03:23:28.208Z,7.42
2022-10-11T03:25:56.206Z,7.40
2022-10-11T03:28:24.298Z,7.41
2022-10-11T03:30:53.346Z,7.40
2022-10-11T03:33:21.511Z,7.40
2022-10-11T03:35:50.100Z,7.39
2022-10-11T03:38:22.763Z,7.41
2022-10-11T03:40:51.099Z,7.40
2022-10-11T03:43:19.244Z,7.40
2022-10-11T03:45:47.426Z,7.40
2022-10-11T03:48:15.449Z,7.37
2022-10-11T03:50:43.471Z,7.35
2022-10-11T03:53:11.669Z,7.32
2022-10-11T03:55:41.495Z,7.30
2022-10-11T03:58:09.857Z,7.26
2022-10-11T04:00:38.758Z,7.22
2022-10-11T04:03:06.759Z,7.20
2022-10-11T04:05:34.793Z,7.17
2022-10-11T04:08:02.793Z,7.17
2022-10-11T04:10:31.089Z,7.17
2022-10-11T04:13:00.631Z,7.16
2022-10-11T04:15:28.633Z,7.16
2022-10-11T04:17:56.663Z,7.16
2022-10-11T04:20:24.678Z,7.17
2022-10-11T04:22:52.716Z,7.18
2022-10-11T04:25:20.747Z,7.20
2022-10-11T04:27:48.802Z,7.21
2022-10-11T04:30:18.842Z,7.21
2022-10-11T04:32:46.863Z,7.21
2022-10-11T04:35:14.980Z,7.19
2022-10-11T04:37:43.014Z,7.16
2022-10-11T04:40:12.652Z,7.15
2022-10-11T04:42:40.676Z,7.12
2022-10-11T04:45:10.214Z,7.11
2022-10-11T04:47:41.099Z,7.09
2022-10-11T04:50:09.595Z,7.12
2022-10-11T04:52:37.587Z,7.13
2022-10-11T04:55:06.339Z,7.13
2022-10-11T04:57:34.361Z,7.13
2022-10-11T05:00:02.506Z,7.12
2022-10-11T05:02:30.535Z,7.13
2022-10-11T05:04:59.957Z,7.13
2022-10-11T05:07:27.990Z,7.13
2022-10-11T05:09:55.993Z,7.12
2022-10-11T05:12:24.238Z,7.12
2022-10-11T05:14:52.262Z,7.11
2022-10-11T05:17:20.300Z,7.11
2022-10-11T05:19:48.301Z,7.09
2022-10-11T05:22:17.668Z,7.08
2022-10-11T05:24:45.690Z,7.08
2022-10-11T05:27:13.781Z,7.08
2022-10-11T05:29:41.878Z,7.08
2022-10-11T05:32:09.900Z,7.07
2022-10-11T05:34:37.909Z,7.05
2022-10-11T05:37:05.921Z,7.05
2022-10-11T05:39:35.268Z,7.04
2022-10-11T05:42:07.656Z,7.00
2022-10-11T05:44:37.710Z,6.99
2022-10-11T05:47:05.799Z,6.99
2022-10-11T05:49:33.803Z,6.97
2022-10-11T05:52:01.779Z,6.98
2022-10-11T05:54:30.685Z,6.97
2022-10-11T05:57:00.082Z,6.97
2022-10-11T05:59:28.188Z,6.97
2022-10-11T06:01:56.209Z,6.98
2022-10-11T06:04:24.250Z,6.99
2022-10-11T06:06:52.250Z,7.00
2022-10-11T06:09:20.305Z,7.00
2022-10-11T06:11:48.642Z,7.00
2022-10-11T06:14:18.224Z,7.00
2022-10-11T06:16:46.256Z,7.01
2022-10-11T06:19:14.283Z,7.01
2022-10-11T06:21:42.301Z,7.02
2022-10-11T06:24:10.342Z,7.04
2022-10-11T06:26:38.343Z,7.09
2022-10-11T06:29:06.694Z,7.16
2022-10-11T06:31:36.129Z,7.24
2022-10-11T06:34:04.161Z,7.33
2022-10-11T06:36:32.241Z,7.41
2022-10-11T06:39:01.484Z,7.46
2022-10-11T06:41:31.166Z,7.51
2022-10-11T06:43:59.293Z,7.56
2022-10-11T06:46:28.558Z,7.61
2022-10-11T06:48:58.265Z,7.65
2022-10-11T06:51:27.178Z,7.74
2022-10-11T06:53:56.841Z,7.81
2022-10-11T06:56:25.584Z,7.90
2022-10-11T06:58:54.585Z,8.00
2022-10-11T07:01:23.808Z,8.08
2022-10-11T07:03:53.421Z,8.14
2022-10-11T07:06:24.381Z,8.19
2022-10-11T07:08:52.707Z,8.25
2022-10-11T07:11:22.113Z,8.29
2022-10-11T07:13:50.827Z,8.34
2022-10-11T07:16:19.762Z,8.39
2022-10-11T07:18:48.342Z,8.45
2022-10-11T07:21:17.358Z,8.52
2022-10-11T07:23:46.747Z,8.58
2022-10-11T07:26:15.174Z,8.64
2022-10-11T07:28:43.581Z,8.71
2022-10-11T07:31:13.778Z,8.82
2022-10-11T07:33:41.811Z,8.96
2022-10-11T07:36:10.860Z,9.11
2022-10-11T07:38:41.135Z,9.29
2022-10-11T07:41:10.947Z,9.48
2022-10-11T07:43:40.879Z,9.65
2022-10-11T07:46:09.415Z,9.79
2022-10-11T07:48:38.176Z,9.94
2022-10-11T07:51:07.885Z,10.03
2022-10-11T07:53:39.871Z,10.10
2022-10-11T07:56:12.378Z,10.12
2022-10-11T07:58:40.860Z,10.13
2022-10-11T08:01:09.776Z,10.14
2022-10-11T08:03:38.533Z,10.21
2022-10-11T08:06:09.449Z,10.34
2022-10-11T08:08:38.600Z,10.45
2022-10-11T08:11:07.218Z,10.52
2022-10-11T08:13:36.872Z,10.57
2022-10-11T08:16:11.623Z,10.64
2022-10-11T08:18:39.620Z,10.65
2022-10-11T08:21:08.831Z,10.68
2022-10-11T08:23:37.000Z,10.79
2022-10-11T08:26:05.983Z,10.97
2022-10-11T08:28:34.233Z,11.17
2022-10-11T08:31:03.850Z,11.37
2022-10-11T08:33:32.092Z,11.57
2022-10-11T08:36:00.128Z,11.74
2022-10-11T08:38:28.174Z,11.95
2022-10-11T08:40:59.454Z,12.13
2022-10-11T08:43:37.097Z,12.30
2022-10-11T08:46:09.232Z,12.50
2022-10-11T08:48:39.681Z,12.65
2022-10-11T08:51:14.864Z,12.84
2022-10-11T08:53:47.510Z,13.03
2022-10-11T08:56:16.230Z,13.19
2022-10-11T08:58:50.530Z,13.32
2022-10-11T09:01:24.943Z,13.42
2022-10-11T09:03:53.684Z,13.43
2022-10-11T09:06:29.386Z,13.44
2022-10-11T09:09:11.435Z,13.47
2022-10-11T09:11:49.919Z,13.57
2022-10-11T09:14:40.328Z,13.70
2022-10-11T09:17:18.816Z,13.88
2022-10-11T09:20:05.699Z,14.06
2022-10-11T09:22:43.233Z,14.23
2022-10-11T09:25:20.201Z,14.40
2022-10-11T09:28:02.712Z,14.55
2022-10-11T09:30:32.000Z,14.68
2022-10-11T09:33:10.584Z,14.80
2022-10-11T09:35:41.393Z,14.92
2022-10-11T09:38:17.865Z,15.03
2022-10-11T09:40:53.871Z,15.13
2022-10-11T09:43:22.111Z,15.15
2022-10-11T09:45:50.112Z,15.06
2022-10-11T09:48:22.815Z,15.00
2022-10-11T09:50:51.624Z,15.08
2022-10-11T09:53:21.880Z,15.17
2022-10-11T09:55:53.901Z,15.24
2022-10-11T09:58:28.657Z,15.31
2022-10-11T10:01:07.396Z,15.43
2022-10-11T10:03:38.956Z,15.53
2022-10-11T10:06:09.642Z,15.60
2022-10-11T10:08:37.910Z,15.67
2022-10-11T10:11:07.949Z,15.73
2022-10-11T10:13:42.564Z,15.79
2022-10-11T10:16:22.034Z,15.85
2022-10-11T10:18:53.673Z,15.91
2022-10-11T10:21:28.519Z,16.00
2022-10-11T10:23:57.719Z,16.10
2022-10-11T10:26:27.472Z,16.17
2022-10-11T10:29:05.001Z,16.27
2022-10-11T10:31:55.373Z,16.37
2022-10-11T10:34:30.855Z,16.47
2022-10-11T10:37:01.997Z,16.56
2022-10-11T10:39:34.784Z,16.65
2022-10-11T10:42:04.769Z,16.60
2022-10-11T10:44:32.808Z,16.39
2022-10-11T10:47:09.232Z,16.16
2022-10-11T10:49:53.598Z,15.92
2022-10-11T10:52:49.755Z,15.63
2022-10-11T10:55:24.948Z,15.38
2022-10-11T10:58:06.320Z,15.12
2022-10-11T11:00:41.840Z,14.89
2022-10-11T11:03:15.755Z,14.73
2022-10-11T11:05:49.523Z,14.59
2022-10-11T11:08:27.762Z,14.52
2022-10-11T11:11:01.755Z,14.50
2022-10-11T11:13:34.934Z,14.54
2022-10-11T11:16:11.571Z,14.64
2022-10-11T11:18:43.284Z,14.76
2022-10-11T11:21:25.806Z,14.91
2022-10-11T11:24:02.742Z,15.04
2022-10-11T11:26:44.049Z,15.11
2022-10-11T11:29:24.441Z,15.13
2022-10-11T11:32:08.253Z,15.08
2022-10-11T11:34:39.462Z,15.06
2022-10-11T11:37:16.164Z,15.12
2022-10-11T11:39:48.962Z,15.29
2022-10-11T11:42:20.293Z,15.43
2022-10-11T11:44:49.764Z,15.50
2022-10-11T11:47:21.312Z,15.56
2022-10-11T11:49:50.956Z,15.68
2022-10-11T11:52:29.325Z,15.83
2022-10-11T11:55:05.989Z,15.99
2022-10-11T11:57:43.575Z,16.16
2022-10-11T12:00:16.984Z,16.32
2022-10-11T12:02:48.655Z,16.41
2022-10-11T12:05:19.273Z,16.49
2022-10-11T12:07:56.603Z,16.59
2022-10-11T12:10:37.369Z,16.67
2022-10-11T12:13:21.618Z,16.79
2022-10-11T12:16:02.622Z,16.86
2022-10-11T12:18:31.276Z,16.93
2022-10-11T12:21:05.598Z,17.01
2022-10-11T12:23:46.795Z,17.10
2022-10-11T12:26:39.982Z,17.04
2022-10-11T12:29:28.541Z,16.92
2022-10-11T12:32:49.082Z,16.72
2022-10-11T12:36:07.328Z,16.54
2022-10-11T12:38:39.998Z,16.37
2022-10-11T12:41:50.118Z,16.21
2022-10-11T12:44:23.347Z,16.03
2022-10-11T12:47:24.984Z,15.84
2022-10-11T12:50:02.584Z,15.64
2022-10-11T12:52:38.599Z,15.65
2022-10-11T12:55:31.182Z,15.79
2022-10-11T12:58:24.118Z,16.01
2022-10-11T13:01:27.157Z,16.30
2022-10-11T13:04:01.084Z,16.41
2022-10-11T13:06:31.148Z,16.39
2022-10-11T13:09:04.288Z,16.28
2022-10-11T13:11:35.894Z,16.11
2022-10-11T13:14:08.970Z,15.97
2022-10-11T13:16:48.830Z,15.84
2022-10-11T13:19:17.419Z,15.70
2022-10-11T13:21:51.983Z,15.57
2022-10-11T13:24:20.728Z,15.49
2022-10-11T13:26:51.792Z,15.53
2022-10-11T13:29:25.217Z,15.66
2022-10-11T13:31:53.846Z,15.84
2022-10-11T13:34:23.579Z,15.87
2022-10-11T13:36:56.569Z,15.78
2022-10-11T13:39:31.322Z,15.64
2022-10-11T13:42:02.000Z,15.48
2022-10-11T13:44:32.884Z,15.31
2022-10-11T13:47:01.007Z,15.19
2022-10-11T13:49:37.323Z,15.08
2022-10-11T13:52:08.192Z,15.00
2022-10-11T13:55:08.990Z,14.94
2022-10-11T13:57:40.016Z,14.89
2022-10-11T14:00:23.297Z,14.83
2022-10-11T14:02:56.081Z,14.76
2022-10-11T14:05:33.997Z,14.69
2022-10-11T14:08:04.764Z,14.65
2022-10-11T14:10:33.128Z,14.61
2022-10-11T14:13:22.196Z,14.56
2022-10-11T14:16:00.605Z,14.50
2022-10-11T14:18:44.287Z,14.44
2022-10-11T14:21:29.654Z,14.37
2022-10-11T14:23:59.377Z,14.31
2022-10-11T14:26:31.719Z,14.27
2022-10-11T14:29:02.976Z,14.23
2022-10-11T14:31:31.377Z,14.21
2022-10-11T14:33:59.633Z,14.19
2022-10-11T14:36:27.949Z,14.16
2022-10-11T14:38:55.989Z,14.10
2022-10-11T14:41:24.024Z,14.08
2022-10-11T14:43:53.188Z,14.05
2022-10-11T14:46:24.473Z,14.03
2022-10-11T14:48:55.825Z,13.99
2022-10-11T14:51:26.354Z,13.97
2022-10-11T14:53:54.452Z,13.95
2022-10-11T14:56:22.523Z,13.95
2022-10-11T14:58:51.182Z,13.95
2022-10-11T15:01:19.384Z,13.97
2022-10-11T15:03:48.780Z,13.99
2022-10-11T15:06:19.920Z,14.00
2022-10-11T15:08:48.015Z,14.03
2022-10-11T15:11:17.803Z,14.04
2022-10-11T15:13:46.352Z,14.06
2022-10-11T15:16:16.317Z,14.07
2022-10-11T15:18:50.735Z,14.06
2022-10-11T15:21:21.820Z,14.08
2022-10-11T15:23:50.285Z,14.08
2022-10-11T15:26:20.419Z,14.07
2022-10-11T15:28:49.688Z,14.08
2022-10-11T15:31:18.158Z,14.06
2022-10-11T15:33:46.170Z,14.03
2022-10-11T15:36:16.176Z,14.00
2022-10-11T15:38:45.894Z,13.95
2022-10-11T15:41:15.626Z,13.90
2022-10-11T15:43:44.736Z,13.87
2022-10-11T15:46:15.996Z,13.82
2022-10-11T15:48:44.921Z,13.75
2022-10-11T15:51:13.032Z,13.68
2022-10-11T15:53:41.500Z,13.60
2022-10-11T15:56:15.623Z,13.50
2022-10-11T15:58:43.895Z,13.40
2022-10-11T16:01:15.451Z,13.32
2022-10-11T16:03:44.122Z,13.22
2022-10-11T16:06:13.329Z,13.13
2022-10-11T16:08:41.709Z,13.03
2022-10-11T16:11:12.327Z,12.94
2022-10-11T16:13:40.486Z,12.86
2022-10-11T16:16:10.106Z,12.79
2022-10-11T16:18:38.882Z,12.72
2022-10-11T16:21:09.066Z,12.65
2022-10-11T16:23:37.608Z,12.58
2022-10-11T16:26:07.646Z,12.53
2022-10-11T16:28:37.811Z,12.47
2022-10-11T16:31:09.364Z,12.38
2022-10-11T16:33:45.680Z,12.32
2022-10-11T16:36:36.398Z,12.24
2022-10-11T16:39:08.293Z,12.15
2022-10-11T16:41:36.401Z,12.10
2022-10-11T16:44:06.024Z,12.02
2022-10-11T16:46:35.023Z,11.93
2022-10-11T16:49:03.068Z,11.84
2022-10-11T16:51:31.138Z,11.74
2022-10-11T16:53:59.171Z,11.66
2022-10-11T16:56:27.976Z,11.57
2022-10-11T16:58:56.310Z,11.53
2022-10-11T17:01:26.004Z,11.48
2022-10-11T17:03:54.128Z,11.44
2022-10-11T17:06:22.159Z,11.40
2022-10-11T17:08:50.307Z,11.35
2022-10-11T17:11:18.630Z,11.29
2022-10-11T17:13:46.952Z,11.23
2022-10-11T17:16:15.344Z,11.16
2022-10-11T17:18:45.154Z,11.12
2022-10-11T17:21:14.910Z,11.07
2022-10-11T17:23:42.983Z,11.04
2022-10-11T17:26:15.387Z,11.01
2022-10-11T17:28:43.601Z,10.99
2022-10-11T17:31:12.007Z,10.98
2022-10-11T17:33:40.311Z,10.98
2022-10-11T17:36:18.343Z,10.97
2022-10-11T17:38:46.490Z,10.97
2022-10-11T17:41:14.965Z,10.96
2022-10-11T17:43:43.106Z,10.94
2022-10-11T17:46:13.235Z,10.91
2022-10-11T17:48:41.630Z,10.86
2022-10-11T17:51:11.280Z,10.83
2022-10-11T17:53:41.125Z,10.79
2022-10-11T17:56:15.690Z,10.74
2022-10-11T17:58:44.101Z,10.69
2022-10-11T18:01:14.227Z,10.65
2022-10-11T18:03:42.622Z,10.61
2022-10-11T18:06:12.949Z,10.57
2022-10-11T18:08:42.546Z,10.54
2022-10-11T18:11:11.546Z,10.53
2022-10-11T18:13:42.582Z,10.53
2022-10-11T18:16:11.641Z,10.55
2022-10-11T18:18:40.313Z,10.57
2022-10-11T18:21:08.347Z,10.58
2022-10-11T18:23:38.200Z,10.58
2022-10-11T18:26:12.207Z,10.61
2022-10-11T18:28:41.594Z,10.63
2022-10-11T18:31:13.161Z,10.63
2022-10-11T18:33:42.637Z,10.66
2022-10-11T18:36:13.434Z,10.67
2022-10-11T18:38:46.090Z,10.69
2022-10-11T18:41:18.054Z,10.71
2022-10-11T18:43:50.082Z,10.73
2022-10-11T18:46:18.299Z,10.76
2022-10-11T18:48:48.262Z,10.78
2022-10-11T18:51:18.399Z,10.83
2022-10-11T18:53:47.603Z,10.86
2022-10-11T18:56:20.580Z,10.89
2022-10-11T18:58:49.621Z,10.91
2022-10-11T19:01:19.333Z,10.94
2022-10-11T19:03:49.307Z,10.94
2022-10-11T19:06:18.778Z,10.93
2022-10-11T19:08:47.791Z,10.94
2022-10-11T19:11:17.820Z,10.95
2022-10-11T19:13:45.859Z,10.94
2022-10-11T19:16:16.919Z,10.94
2022-10-11T19:18:45.126Z,10.95
2022-10-11T19:21:14.541Z,10.95
2022-10-11T19:23:44.441Z,10.95
2022-10-11T19:26:15.149Z,10.95
2022-10-11T19:28:44.914Z,10.95
2022-10-11T19:31:16.793Z,10.97
2022-10-11T19:33:48.023Z,10.98
2022-10-11T19:36:16.819Z,10.99
2022-10-11T19:38:46.482Z,11.00
2022-10-11T19:41:15.420Z,11.02
2022-10-11T19:43:45.222Z,11.04
2022-10-11T19:46:20.199Z,11.05
2022-10-11T19:48:52.206Z,11.08
2022-10-11T19:51:22.619Z,11.07
2022-10-11T19:53:55.818Z,11.08
2022-10-11T19:56:24.260Z,11.09
2022-10-11T19:58:53.842Z,11.11
2022-10-11T20:01:24.070Z,11.12
2022-10-11T20:03:53.480Z,11.13
2022-10-11T20:06:23.383Z,11.12
2022-10-11T20:09:10.395Z,11.14
2022-10-11T20:11:40.256Z,11.14
2022-10-11T20:14:09.888Z,11.15
2022-10-11T20:16:37.898Z,11.17
2022-10-11T20:19:06.281Z,11.18
2022-10-11T20:21:34.330Z,11.20
2022-10-11T20:24:04.630Z,11.23
2022-10-11T20:26:33.240Z,11.23
2022-10-11T20:29:01.305Z,11.26
2022-10-11T20:31:32.793Z,11.27
2022-10-11T20:34:02.385Z,11.29
2022-10-11T20:36:31.607Z,11.31
2022-10-11T20:39:00.943Z,11.33
2022-10-11T20:41:31.551Z,11.33
2022-10-11T20:44:00.659Z,11.36
2022-10-11T20:46:31.647Z,11.36
2022-10-11T20:49:02.315Z,11.38
2022-10-11T20:51:31.850Z,11.37
2022-10-11T20:54:00.566Z,11.38
2022-10-11T20:56:29.774Z,11.37
2022-10-11T20:58:59.107Z,11.38
2022-10-11T21:01:28.928Z,11.38
2022-10-11T21:04:00.326Z,11.38
2022-10-11T21:06:29.170Z,11.37
2022-10-11T21:08:58.796Z,11.37
2022-10-11T21:11:27.277Z,11.37
2022-10-11T21:13:56.479Z,11.35
2022-10-11T21:16:24.670Z,11.34
2022-10-11T21:18:53.299Z,11.33
2022-10-11T21:21:23.882Z,11.33
2022-10-11T21:23:54.680Z,11.32
2022-10-11T21:26:22.899Z,11.34
2022-10-11T21:28:51.182Z,11.33
2022-10-11T21:31:21.277Z,11.32
2022-10-11T21:33:49.665Z,11.32
2022-10-11T21:36:19.459Z,11.33
2022-10-11T21:38:49.366Z,11.34
2022-10-11T21:41:19.295Z,11.34
2022-10-11T21:43:47.438Z,11.34
2022-10-11T21:46:18.065Z,11.36
2022-10-11T21:48:46.311Z,11.37
2022-10-11T21:51:15.898Z,11.39
2022-10-11T21:53:43.912Z,11.38
2022-10-11T21:56:13.334Z,11.39
2022-10-11T21:58:41.590Z,11.38
2022-10-11T22:01:09.835Z,11.38
2022-10-11T22:03:37.865Z,11.38
2022-10-11T22:06:06.555Z,11.37
2022-10-11T22:08:34.867Z,11.36
2022-10-11T22:11:03.277Z,11.37
2022-10-11T22:13:33.953Z,11.36
2022-10-11T22:16:04.206Z,11.37
2022-10-11T22:18:33.830Z,11.37
2022-10-11T22:21:07.688Z,11.36
2022-10-11T22:23:35.779Z,11.38
2022-10-11T22:26:05.345Z,11.37
2022-10-11T22:28:35.149Z,11.37
2022-10-11T22:31:03.729Z,11.37
2022-10-11T22:33:31.912Z,11.36
2022-10-11T22:36:01.660Z,11.36
2022-10-11T22:38:29.929Z,11.35
2022-10-11T22:40:59.093Z,11.34
2022-10-11T22:43:27.185Z,11.33
2022-10-11T22:45:56.589Z,11.32
2022-10-11T22:48:24.693Z,11.32
2022-10-11T22:50:52.780Z,11.33
2022-10-11T22:53:21.031Z,11.33
2022-10-11T22:55:49.334Z,11.32
2022-10-11T22:58:17.362Z,11.31
2022-10-11T23:00:45.350Z,11.32
2022-10-11T23:03:15.182Z,11.31
2022-10-11T23:05:43.234Z,11.31
2022-10-11T23:08:11.429Z,11.33
2022-10-11T23:10:39.785Z,11.32
2022-10-11T23:13:07.832Z,11.31
2022-10-11T23:15:35.871Z,11.31
2022-10-11T23:18:03.870Z,11.31
2022-10-11T23:20:33.262Z,11.31
2022-10-11T23:23:01.312Z,11.31
2022-10-11T23:25:29.309Z,11.29
2022-10-11T23:27:57.337Z,11.29
2022-10-11T23:30:25.361Z,11.31
2022-10-11T23:32:53.375Z,11.30
2022-10-11T23:35:21.397Z,11.31
2022-10-11T23:37:50.832Z,11.31
2022-10-11T23:40:18.896Z,11.31
2022-10-11T23:42:46.934Z,11.31
2022-10-11T23:45:15.151Z,11.31
2022-10-11T23:47:43.254Z,11.30
2022-10-11T23:50:11.431Z,11.29
2022-10-11T23:52:39.463Z,11.30
2022-10-11T23:55:09.680Z,11.26
2022-10-11T23:57:37.972Z,11.24
